Aérodrome :
LOGIN :

S'inscrire | Disclaimer

   EN    FR    IT 

 










Légende :    VFR   VFR Marginal   IFR   IFR Intensif   IFR Très Intensif
Visi : 
Plafond : 
>= 8 km
>= 3000ft
5 à 8 km
1000 à 3000 ft
1500m à 5 km
500 à 1000 ft
800 à 1500m
200 à 500 ft
< 800m
< 200 ft
Symboles :   Orages  Brouillard  Fortes neiges  Fortes précipitations  Vent > 20 kt
SIGMETs :   Divers  Orages  Givrage  Turbulence  Onde Orograph.  Cendres Volcan.






- Altitude de l'aérodrome : 140 ft


ESTL - Ljungbyhed

DERNIER METAR :
  • 141320Z AUTO VRB02KT 9999 FEW020/// 08/06 Q1010

METARs EXPIRÉS :
  • 141250Z VRB03KT 9999 FEW012 08/06 Q1010
  • 141220Z 17004KT 9999 NSC 08/06 Q1010
  • 141150Z 21004KT 9999 FEW009 08/06 Q1009
  • 141120Z 21005KT 170V230 9999 FEW008 08/06 Q1009
  • 141050Z 21003KT 170V240 9999 FEW006 BKN045 09/07 Q1008

TAF TAF ESTL
Valide du 14 à 12h jusqu'au 14 à 16h UTC


141113Z 1412/1416 14004KT 9999 SCT015
TEMPO 1412/1416 BKN010



MET'MAP, la Météo Aéronautique d'un coup d'oeil ! - Copyright ORBIFLY Décembre 2007 - Disclaimer

ORBIFLY MET'MAP TEAM :

Programmation & Développement : Alexandra Zaïnal
Conception & Développement : Baudouin d'Aumeries
Co-Programmation & Développement : Marc-Olivier Méhu
Soutien technique & logistique : Manuel Goepfert

Contact : metmap@orbifly.com




SOURCES & CREDITS :

   NOAA